sensor_id;sensor_type;location;lat;lon;timestamp;temperature;humidity
9393;DHT22;4736;52.508;13.422;2022-09-13T00:01:48;14.20;1.00
9393;DHT22;4736;52.508;13.422;2022-09-13T00:04:52;14.20;1.00
9393;DHT22;4736;52.508;13.422;2022-09-13T00:07:56;14.20;1.00
9393;DHT22;4736;52.508;13.422;2022-09-13T00:10:59;14.20;1.00
9393;DHT22;4736;52.508;13.422;2022-09-13T00:14:02;14.20;1.00
9393;DHT22;4736;52.508;13.422;2022-09-13T00:17:05;14.20;1.00
9393;DHT22;4736;52.508;13.422;2022-09-13T00:20:10;14.20;1.00
9393;DHT22;4736;52.508;13.422;2022-09-13T00:23:13;14.20;1.00
9393;DHT22;4736;52.508;13.422;2022-09-13T00:26:18;14.20;1.00
9393;DHT22;4736;52.508;13.422;2022-09-13T00:29:21;14.10;1.00
9393;DHT22;4736;52.508;13.422;2022-09-13T00:32:24;14.10;1.00
9393;DHT22;4736;52.508;13.422;2022-09-13T00:35:28;14.10;1.00
9393;DHT22;4736;52.508;13.422;2022-09-13T00:38:33;14.10;1.00
9393;DHT22;4736;52.508;13.422;2022-09-13T00:41:36;14.10;1.00
9393;DHT22;4736;52.508;13.422;2022-09-13T00:44:53;14.00;1.00
9393;DHT22;4736;52.508;13.422;2022-09-13T00:48:00;14.00;1.00
9393;DHT22;4736;52.508;13.422;2022-09-13T00:51:06;14.00;1.00
9393;DHT22;4736;52.508;13.422;2022-09-13T00:54:10;14.00;1.00
9393;DHT22;4736;52.508;13.422;2022-09-13T00:57:16;14.00;1.00
9393;DHT22;4736;52.508;13.422;2022-09-13T01:00:20;14.00;1.00
9393;DHT22;4736;52.508;13.422;2022-09-13T01:03:25;13.90;1.00
9393;DHT22;4736;52.508;13.422;2022-09-13T01:06:33;13.90;1.00
9393;DHT22;4736;52.508;13.422;2022-09-13T01:09:41;13.90;1.00
9393;DHT22;4736;52.508;13.422;2022-09-13T01:12:49;13.90;1.00
9393;DHT22;4736;52.508;13.422;2022-09-13T01:15:53;13.90;1.00
9393;DHT22;4736;52.508;13.422;2022-09-13T01:18:56;13.90;1.00
9393;DHT22;4736;52.508;13.422;2022-09-13T01:26:16;13.90;1.00
9393;DHT22;4736;52.508;13.422;2022-09-13T01:33:18;13.80;1.00
9393;DHT22;4736;52.508;13.422;2022-09-13T01:36:43;13.80;1.00
9393;DHT22;4736;52.508;13.422;2022-09-13T01:40:01;13.80;1.00
9393;DHT22;4736;52.508;13.422;2022-09-13T01:43:24;13.70;1.00
9393;DHT22;4736;52.508;13.422;2022-09-13T01:46:33;13.70;1.00
9393;DHT22;4736;52.508;13.422;2022-09-13T01:49:45;13.70;1.00
9393;DHT22;4736;52.508;13.422;2022-09-13T01:52:52;13.60;1.00
9393;DHT22;4736;52.508;13.422;2022-09-13T01:56:01;13.60;1.00
9393;DHT22;4736;52.508;13.422;2022-09-13T01:59:12;13.60;1.00
9393;DHT22;4736;52.508;13.422;2022-09-13T02:02:20;13.60;1.00
9393;DHT22;4736;52.508;13.422;2022-09-13T02:05:31;13.50;1.00
9393;DHT22;4736;52.508;13.422;2022-09-13T02:08:40;13.50;1.00
9393;DHT22;4736;52.508;13.422;2022-09-13T02:11:45;13.50;1.00
9393;DHT22;4736;52.508;13.422;2022-09-13T02:14:55;13.50;1.00
9393;DHT22;4736;52.508;13.422;2022-09-13T02:18:04;13.50;1.00
9393;DHT22;4736;52.508;13.422;2022-09-13T02:21:14;13.40;1.00
9393;DHT22;4736;52.508;13.422;2022-09-13T02:24:23;13.40;1.00
9393;DHT22;4736;52.508;13.422;2022-09-13T02:27:32;13.40;1.00
9393;DHT22;4736;52.508;13.422;2022-09-13T02:30:38;13.40;1.00
9393;DHT22;4736;52.508;13.422;2022-09-13T02:33:44;13.40;1.00
9393;DHT22;4736;52.508;13.422;2022-09-13T02:36:53;13.40;1.00
9393;DHT22;4736;52.508;13.422;2022-09-13T02:39:58;13.40;1.00
9393;DHT22;4736;52.508;13.422;2022-09-13T02:43:07;13.40;1.00
9393;DHT22;4736;52.508;13.422;2022-09-13T02:46:18;13.30;1.00
9393;DHT22;4736;52.508;13.422;2022-09-13T02:49:26;13.40;1.00
9393;DHT22;4736;52.508;13.422;2022-09-13T02:52:40;13.30;1.00
9393;DHT22;4736;52.508;13.422;2022-09-13T02:55:52;13.30;1.00
9393;DHT22;4736;52.508;13.422;2022-09-13T02:59:02;13.40;1.00
9393;DHT22;4736;52.508;13.422;2022-09-13T03:02:09;13.30;1.00
9393;DHT22;4736;52.508;13.422;2022-09-13T03:05:14;13.40;1.00
9393;DHT22;4736;52.508;13.422;2022-09-13T03:08:20;13.40;1.00
9393;DHT22;4736;52.508;13.422;2022-09-13T03:11:29;13.40;1.00
9393;DHT22;4736;52.508;13.422;2022-09-13T03:14:40;13.40;1.00
9393;DHT22;4736;52.508;13.422;2022-09-13T03:17:52;13.30;1.00
9393;DHT22;4736;52.508;13.422;2022-09-13T03:21:01;13.40;1.00
9393;DHT22;4736;52.508;13.422;2022-09-13T03:24:17;13.30;1.00
9393;DHT22;4736;52.508;13.422;2022-09-13T03:27:29;13.30;1.00
9393;DHT22;4736;52.508;13.422;2022-09-13T03:30:37;13.30;1.00
9393;DHT22;4736;52.508;13.422;2022-09-13T03:33:47;13.30;1.00
9393;DHT22;4736;52.508;13.422;2022-09-13T03:36:55;13.20;1.00
9393;DHT22;4736;52.508;13.422;2022-09-13T03:40:05;13.20;1.00
9393;DHT22;4736;52.508;13.422;2022-09-13T03:43:12;13.20;1.00
9393;DHT22;4736;52.508;13.422;2022-09-13T03:46:20;13.20;1.00
9393;DHT22;4736;52.508;13.422;2022-09-13T03:49:25;13.20;1.00
9393;DHT22;4736;52.508;13.422;2022-09-13T03:52:29;13.30;1.00
9393;DHT22;4736;52.508;13.422;2022-09-13T03:55:35;13.20;1.00
9393;DHT22;4736;52.508;13.422;2022-09-13T03:58:40;13.30;1.00
9393;DHT22;4736;52.508;13.422;2022-09-13T04:01:42;13.30;1.00
9393;DHT22;4736;52.508;13.422;2022-09-13T04:04:46;13.30;1.00
9393;DHT22;4736;52.508;13.422;2022-09-13T04:07:50;13.30;1.00
9393;DHT22;4736;52.508;13.422;2022-09-13T04:10:54;13.30;1.00
9393;DHT22;4736;52.508;13.422;2022-09-13T04:13:57;13.30;1.00
9393;DHT22;4736;52.508;13.422;2022-09-13T04:17:00;13.40;1.00
9393;DHT22;4736;52.508;13.422;2022-09-13T04:20:03;13.40;1.00
9393;DHT22;4736;52.508;13.422;2022-09-13T04:23:07;13.40;1.00
9393;DHT22;4736;52.508;13.422;2022-09-13T04:26:11;13.50;1.00
9393;DHT22;4736;52.508;13.422;2022-09-13T04:29:14;13.50;1.00
9393;DHT22;4736;52.508;13.422;2022-09-13T04:32:17;13.50;1.00
9393;DHT22;4736;52.508;13.422;2022-09-13T04:35:20;13.50;1.00
9393;DHT22;4736;52.508;13.422;2022-09-13T04:38:22;13.50;1.00
9393;DHT22;4736;52.508;13.422;2022-09-13T04:41:27;13.50;1.00
9393;DHT22;4736;52.508;13.422;2022-09-13T04:44:30;13.60;1.00
9393;DHT22;4736;52.508;13.422;2022-09-13T04:47:34;13.60;1.00
9393;DHT22;4736;52.508;13.422;2022-09-13T04:50:36;13.70;1.00
9393;DHT22;4736;52.508;13.422;2022-09-13T04:53:39;13.60;1.00
9393;DHT22;4736;52.508;13.422;2022-09-13T04:56:44;13.70;1.00
9393;DHT22;4736;52.508;13.422;2022-09-13T04:59:47;13.70;1.00
9393;DHT22;4736;52.508;13.422;2022-09-13T05:02:53;13.80;1.00
9393;DHT22;4736;52.508;13.422;2022-09-13T05:06:01;13.80;1.00
9393;DHT22;4736;52.508;13.422;2022-09-13T05:09:04;13.90;1.00
9393;DHT22;4736;52.508;13.422;2022-09-13T05:12:09;13.90;1.00
9393;DHT22;4736;52.508;13.422;2022-09-13T05:15:12;14.00;1.00
9393;DHT22;4736;52.508;13.422;2022-09-13T05:18:15;14.00;1.00
9393;DHT22;4736;52.508;13.422;2022-09-13T05:21:18;14.10;1.00
9393;DHT22;4736;52.508;13.422;2022-09-13T05:24:21;14.10;1.00
9393;DHT22;4736;52.508;13.422;2022-09-13T05:27:26;14.20;1.00
9393;DHT22;4736;52.508;13.422;2022-09-13T05:30:28;14.20;1.00
9393;DHT22;4736;52.508;13.422;2022-09-13T05:33:33;14.30;1.00
9393;DHT22;4736;52.508;13.422;2022-09-13T05:36:36;14.30;1.00
9393;DHT22;4736;52.508;13.422;2022-09-13T05:39:39;14.30;1.00
9393;DHT22;4736;52.508;13.422;2022-09-13T05:43:03;14.30;1.00
9393;DHT22;4736;52.508;13.422;2022-09-13T05:46:09;14.30;1.00
9393;DHT22;4736;52.508;13.422;2022-09-13T05:49:13;14.30;1.00
9393;DHT22;4736;52.508;13.422;2022-09-13T05:52:15;14.20;1.00
9393;DHT22;4736;52.508;13.422;2022-09-13T05:55:18;14.20;1.00
9393;DHT22;4736;52.508;13.422;2022-09-13T05:58:24;14.20;1.00
9393;DHT22;4736;52.508;13.422;2022-09-13T06:01:27;14.20;1.00
9393;DHT22;4736;52.508;13.422;2022-09-13T06:04:30;14.10;1.00
9393;DHT22;4736;52.508;13.422;2022-09-13T06:07:33;14.10;1.00
9393;DHT22;4736;52.508;13.422;2022-09-13T06:10:36;14.10;1.00
9393;DHT22;4736;52.508;13.422;2022-09-13T06:13:41;14.10;1.00
9393;DHT22;4736;52.508;13.422;2022-09-13T06:16:44;14.10;1.00
9393;DHT22;4736;52.508;13.422;2022-09-13T06:19:46;14.10;1.00
9393;DHT22;4736;52.508;13.422;2022-09-13T06:22:49;14.10;1.00
9393;DHT22;4736;52.508;13.422;2022-09-13T06:25:59;14.10;1.00
9393;DHT22;4736;52.508;13.422;2022-09-13T06:29:03;14.10;1.00
9393;DHT22;4736;52.508;13.422;2022-09-13T06:32:06;14.10;1.00
9393;DHT22;4736;52.508;13.422;2022-09-13T06:35:09;14.10;1.00
9393;DHT22;4736;52.508;13.422;2022-09-13T06:38:12;14.10;1.00
9393;DHT22;4736;52.508;13.422;2022-09-13T06:41:16;14.10;1.00
9393;DHT22;4736;52.508;13.422;2022-09-13T06:44:21;14.10;1.00
9393;DHT22;4736;52.508;13.422;2022-09-13T06:47:24;14.10;1.00
9393;DHT22;4736;52.508;13.422;2022-09-13T06:50:27;14.20;1.00
9393;DHT22;4736;52.508;13.422;2022-09-13T06:53:31;14.20;1.00
9393;DHT22;4736;52.508;13.422;2022-09-13T06:56:36;14.40;1.00
9393;DHT22;4736;52.508;13.422;2022-09-13T06:59:41;14.50;1.00
9393;DHT22;4736;52.508;13.422;2022-09-13T07:02:49;14.70;1.00
9393;DHT22;4736;52.508;13.422;2022-09-13T07:05:52;14.80;1.00
9393;DHT22;4736;52.508;13.422;2022-09-13T07:08:57;14.80;1.00
9393;DHT22;4736;52.508;13.422;2022-09-13T07:12:01;14.90;1.00
9393;DHT22;4736;52.508;13.422;2022-09-13T07:15:06;15.00;1.00
9393;DHT22;4736;52.508;13.422;2022-09-13T07:18:09;15.10;1.00
9393;DHT22;4736;52.508;13.422;2022-09-13T07:21:11;15.10;1.00
9393;DHT22;4736;52.508;13.422;2022-09-13T07:24:14;15.10;1.00
9393;DHT22;4736;52.508;13.422;2022-09-13T07:27:18;15.10;1.00
9393;DHT22;4736;52.508;13.422;2022-09-13T07:30:22;15.10;1.00
9393;DHT22;4736;52.508;13.422;2022-09-13T07:33:27;15.20;1.00
9393;DHT22;4736;52.508;13.422;2022-09-13T07:36:31;15.30;1.00
9393;DHT22;4736;52.508;13.422;2022-09-13T07:39:35;15.40;1.00
9393;DHT22;4736;52.508;13.422;2022-09-13T07:42:38;15.50;1.00
9393;DHT22;4736;52.508;13.422;2022-09-13T07:45:42;15.60;1.00
9393;DHT22;4736;52.508;13.422;2022-09-13T07:48:45;15.70;1.00
9393;DHT22;4736;52.508;13.422;2022-09-13T07:51:49;15.60;1.00
9393;DHT22;4736;52.508;13.422;2022-09-13T07:54:53;15.60;1.00
9393;DHT22;4736;52.508;13.422;2022-09-13T07:57:57;15.60;1.00
9393;DHT22;4736;52.508;13.422;2022-09-13T08:01:04;15.60;1.00
9393;DHT22;4736;52.508;13.422;2022-09-13T08:04:10;15.70;1.00
9393;DHT22;4736;52.508;13.422;2022-09-13T08:07:13;15.80;1.00
9393;DHT22;4736;52.508;13.422;2022-09-13T08:10:16;16.00;1.00
9393;DHT22;4736;52.508;13.422;2022-09-13T08:13:19;16.20;1.00
9393;DHT22;4736;52.508;13.422;2022-09-13T08:16:24;16.40;1.00
9393;DHT22;4736;52.508;13.422;2022-09-13T08:19:27;16.50;1.00
9393;DHT22;4736;52.508;13.422;2022-09-13T08:22:30;16.60;1.00
9393;DHT22;4736;52.508;13.422;2022-09-13T08:25:33;16.70;1.00
9393;DHT22;4736;52.508;13.422;2022-09-13T08:28:37;16.70;1.00
9393;DHT22;4736;52.508;13.422;2022-09-13T08:31:42;16.80;1.00
9393;DHT22;4736;52.508;13.422;2022-09-13T08:34:45;16.80;1.00
9393;DHT22;4736;52.508;13.422;2022-09-13T08:37:48;16.90;1.00
9393;DHT22;4736;52.508;13.422;2022-09-13T08:40:54;16.90;1.00
9393;DHT22;4736;52.508;13.422;2022-09-13T08:44:02;17.10;1.00
9393;DHT22;4736;52.508;13.422;2022-09-13T08:47:33;17.20;1.00
9393;DHT22;4736;52.508;13.422;2022-09-13T08:50:37;17.40;1.00
9393;DHT22;4736;52.508;13.422;2022-09-13T08:53:44;17.50;1.00
9393;DHT22;4736;52.508;13.422;2022-09-13T08:56:52;17.50;1.00
9393;DHT22;4736;52.508;13.422;2022-09-13T09:00:04;17.40;1.00
9393;DHT22;4736;52.508;13.422;2022-09-13T09:03:25;17.50;1.00
9393;DHT22;4736;52.508;13.422;2022-09-13T09:06:32;17.50;1.00
9393;DHT22;4736;52.508;13.422;2022-09-13T09:09:40;17.60;1.00
9393;DHT22;4736;52.508;13.422;2022-09-13T09:12:46;17.80;1.00
9393;DHT22;4736;52.508;13.422;2022-09-13T09:15:53;17.90;1.00
9393;DHT22;4736;52.508;13.422;2022-09-13T09:19:03;18.00;1.00
9393;DHT22;4736;52.508;13.422;2022-09-13T09:22:14;17.90;1.00
9393;DHT22;4736;52.508;13.422;2022-09-13T09:25:19;17.80;1.00
9393;DHT22;4736;52.508;13.422;2022-09-13T09:28:24;17.90;1.00
9393;DHT22;4736;52.508;13.422;2022-09-13T09:31:34;18.20;1.00
9393;DHT22;4736;52.508;13.422;2022-09-13T09:34:50;18.40;1.00
9393;DHT22;4736;52.508;13.422;2022-09-13T09:38:11;18.60;1.00
9393;DHT22;4736;52.508;13.422;2022-09-13T09:41:24;18.80;1.00
9393;DHT22;4736;52.508;13.422;2022-09-13T09:44:30;18.80;1.00
9393;DHT22;4736;52.508;13.422;2022-09-13T09:47:42;18.70;1.00
9393;DHT22;4736;52.508;13.422;2022-09-13T09:50:49;18.90;1.00
9393;DHT22;4736;52.508;13.422;2022-09-13T09:53:58;19.10;1.00
9393;DHT22;4736;52.508;13.422;2022-09-13T09:57:03;19.40;1.00
9393;DHT22;4736;52.508;13.422;2022-09-13T10:00:10;19.60;1.00
9393;DHT22;4736;52.508;13.422;2022-09-13T10:03:18;19.90;1.00
9393;DHT22;4736;52.508;13.422;2022-09-13T10:06:24;20.10;1.00
9393;DHT22;4736;52.508;13.422;2022-09-13T10:09:28;20.10;1.00
9393;DHT22;4736;52.508;13.422;2022-09-13T10:12:34;20.30;1.00
9393;DHT22;4736;52.508;13.422;2022-09-13T10:15:52;20.50;1.00
9393;DHT22;4736;52.508;13.422;2022-09-13T10:19:19;20.60;1.00
9393;DHT22;4736;52.508;13.422;2022-09-13T10:22:26;20.50;1.00
9393;DHT22;4736;52.508;13.422;2022-09-13T10:25:30;20.50;1.00
9393;DHT22;4736;52.508;13.422;2022-09-13T10:28:38;20.40;1.00
9393;DHT22;4736;52.508;13.422;2022-09-13T10:31:46;20.50;1.00
9393;DHT22;4736;52.508;13.422;2022-09-13T10:34:51;20.50;1.00
9393;DHT22;4736;52.508;13.422;2022-09-13T10:37:55;20.60;1.00
9393;DHT22;4736;52.508;13.422;2022-09-13T10:41:00;20.80;1.00
9393;DHT22;4736;52.508;13.422;2022-09-13T10:44:08;20.70;1.00
9393;DHT22;4736;52.508;13.422;2022-09-13T10:47:30;20.70;1.00
9393;DHT22;4736;52.508;13.422;2022-09-13T10:50:35;20.60;1.00
9393;DHT22;4736;52.508;13.422;2022-09-13T10:53:41;20.60;1.00
9393;DHT22;4736;52.508;13.422;2022-09-13T10:56:44;20.60;1.00
9393;DHT22;4736;52.508;13.422;2022-09-13T10:59:52;20.60;1.00
9393;DHT22;4736;52.508;13.422;2022-09-13T11:03:10;20.60;1.00
9393;DHT22;4736;52.508;13.422;2022-09-13T11:06:19;20.40;1.00
9393;DHT22;4736;52.508;13.422;2022-09-13T11:09:32;20.50;1.00
9393;DHT22;4736;52.508;13.422;2022-09-13T11:12:40;20.30;1.00
9393;DHT22;4736;52.508;13.422;2022-09-13T11:15:52;20.10;1.00
9393;DHT22;4736;52.508;13.422;2022-09-13T11:19:19;20.00;1.00
9393;DHT22;4736;52.508;13.422;2022-09-13T11:26:04;19.90;1.00
9393;DHT22;4736;52.508;13.422;2022-09-13T11:29:21;19.80;1.00
9393;DHT22;4736;52.508;13.422;2022-09-13T11:32:45;19.70;1.00
9393;DHT22;4736;52.508;13.422;2022-09-13T11:36:11;19.60;1.00
9393;DHT22;4736;52.508;13.422;2022-09-13T11:39:23;19.60;1.00
9393;DHT22;4736;52.508;13.422;2022-09-13T11:42:42;19.60;1.00
9393;DHT22;4736;52.508;13.422;2022-09-13T11:45:53;19.50;1.00
9393;DHT22;4736;52.508;13.422;2022-09-13T11:49:20;19.40;1.00
9393;DHT22;4736;52.508;13.422;2022-09-13T11:52:38;19.30;1.00
9393;DHT22;4736;52.508;13.422;2022-09-13T11:55:46;19.40;1.00
9393;DHT22;4736;52.508;13.422;2022-09-13T11:58:53;19.30;1.00
9393;DHT22;4736;52.508;13.422;2022-09-13T12:02:03;19.30;1.00
9393;DHT22;4736;52.508;13.422;2022-09-13T12:05:12;19.20;1.00
9393;DHT22;4736;52.508;13.422;2022-09-13T12:08:25;19.30;1.00
9393;DHT22;4736;52.508;13.422;2022-09-13T12:11:32;19.30;1.00
9393;DHT22;4736;52.508;13.422;2022-09-13T12:14:45;19.20;1.00
9393;DHT22;4736;52.508;13.422;2022-09-13T12:17:55;19.20;1.00
9393;DHT22;4736;52.508;13.422;2022-09-13T12:21:03;19.10;1.00
9393;DHT22;4736;52.508;13.422;2022-09-13T12:24:13;19.20;1.00
9393;DHT22;4736;52.508;13.422;2022-09-13T12:27:23;19.20;1.00
9393;DHT22;4736;52.508;13.422;2022-09-13T12:30:38;19.20;1.00
9393;DHT22;4736;52.508;13.422;2022-09-13T12:33:44;19.20;1.00
9393;DHT22;4736;52.508;13.422;2022-09-13T12:37:05;19.10;1.00
9393;DHT22;4736;52.508;13.422;2022-09-13T12:40:33;19.10;1.00
9393;DHT22;4736;52.508;13.422;2022-09-13T12:47:43;19.10;1.00
9393;DHT22;4736;52.508;13.422;2022-09-13T12:50:59;19.10;1.00
9393;DHT22;4736;52.508;13.422;2022-09-13T12:57:44;19.10;1.00
9393;DHT22;4736;52.508;13.422;2022-09-13T13:01:04;19.10;1.00
9393;DHT22;4736;52.508;13.422;2022-09-13T13:04:13;19.20;1.00
9393;DHT22;4736;52.508;13.422;2022-09-13T13:07:20;19.30;1.00
9393;DHT22;4736;52.508;13.422;2022-09-13T13:10:25;19.30;1.00
9393;DHT22;4736;52.508;13.422;2022-09-13T13:13:34;19.40;1.00
9393;DHT22;4736;52.508;13.422;2022-09-13T13:16:38;19.50;1.00
9393;DHT22;4736;52.508;13.422;2022-09-13T13:19:43;19.60;1.00
9393;DHT22;4736;52.508;13.422;2022-09-13T13:22:50;19.60;1.00
9393;DHT22;4736;52.508;13.422;2022-09-13T13:26:00;19.60;1.00
9393;DHT22;4736;52.508;13.422;2022-09-13T13:29:16;19.50;1.00
9393;DHT22;4736;52.508;13.422;2022-09-13T13:32:19;19.50;1.00
9393;DHT22;4736;52.508;13.422;2022-09-13T13:35:29;19.50;1.00
9393;DHT22;4736;52.508;13.422;2022-09-13T13:38:40;19.50;1.00
9393;DHT22;4736;52.508;13.422;2022-09-13T13:41:48;19.60;1.00
9393;DHT22;4736;52.508;13.422;2022-09-13T13:45:05;19.50;1.00
9393;DHT22;4736;52.508;13.422;2022-09-13T13:48:34;19.60;1.00
9393;DHT22;4736;52.508;13.422;2022-09-13T13:51:38;19.60;1.00
9393;DHT22;4736;52.508;13.422;2022-09-13T13:54:57;19.60;1.00
9393;DHT22;4736;52.508;13.422;2022-09-13T13:58:02;19.80;1.00
9393;DHT22;4736;52.508;13.422;2022-09-13T14:01:13;19.90;1.00
9393;DHT22;4736;52.508;13.422;2022-09-13T14:08:25;20.10;1.00
9393;DHT22;4736;52.508;13.422;2022-09-13T14:11:45;20.20;1.00
9393;DHT22;4736;52.508;13.422;2022-09-13T14:15:01;20.20;1.00
9393;DHT22;4736;52.508;13.422;2022-09-13T14:18:29;20.30;1.00
9393;DHT22;4736;52.508;13.422;2022-09-13T14:21:35;20.50;1.00
9393;DHT22;4736;52.508;13.422;2022-09-13T14:24:42;20.70;1.00
9393;DHT22;4736;52.508;13.422;2022-09-13T14:27:47;20.80;1.00
9393;DHT22;4736;52.508;13.422;2022-09-13T14:30:55;20.90;1.00
9393;DHT22;4736;52.508;13.422;2022-09-13T14:33:59;21.00;1.00
9393;DHT22;4736;52.508;13.422;2022-09-13T14:37:04;21.10;1.00
9393;DHT22;4736;52.508;13.422;2022-09-13T14:40:16;21.00;1.00
9393;DHT22;4736;52.508;13.422;2022-09-13T14:43:22;21.00;1.00
9393;DHT22;4736;52.508;13.422;2022-09-13T14:46:29;21.00;1.00
9393;DHT22;4736;52.508;13.422;2022-09-13T14:49:37;21.00;1.00
9393;DHT22;4736;52.508;13.422;2022-09-13T14:52:46;20.80;1.00
9393;DHT22;4736;52.508;13.422;2022-09-13T14:55:54;20.70;1.00
9393;DHT22;4736;52.508;13.422;2022-09-13T14:59:00;20.60;1.00
9393;DHT22;4736;52.508;13.422;2022-09-13T15:02:05;20.60;1.00
9393;DHT22;4736;52.508;13.422;2022-09-13T15:05:12;20.60;1.00
9393;DHT22;4736;52.508;13.422;2022-09-13T15:08:25;20.60;1.00
9393;DHT22;4736;52.508;13.422;2022-09-13T15:11:32;20.60;1.00
9393;DHT22;4736;52.508;13.422;2022-09-13T15:14:35;20.80;1.00
9393;DHT22;4736;52.508;13.422;2022-09-13T15:17:53;20.80;1.00
9393;DHT22;4736;52.508;13.422;2022-09-13T15:20:57;21.00;1.00
9393;DHT22;4736;52.508;13.422;2022-09-13T15:24:02;21.30;1.00
9393;DHT22;4736;52.508;13.422;2022-09-13T15:27:16;21.50;1.00
9393;DHT22;4736;52.508;13.422;2022-09-13T15:30:23;21.40;1.00
9393;DHT22;4736;52.508;13.422;2022-09-13T15:33:27;21.30;1.00
9393;DHT22;4736;52.508;13.422;2022-09-13T15:36:33;21.10;1.00
9393;DHT22;4736;52.508;13.422;2022-09-13T15:39:43;21.00;1.00
9393;DHT22;4736;52.508;13.422;2022-09-13T15:42:52;20.90;1.00
9393;DHT22;4736;52.508;13.422;2022-09-13T15:45:56;20.80;1.00
9393;DHT22;4736;52.508;13.422;2022-09-13T15:49:01;20.70;1.00
9393;DHT22;4736;52.508;13.422;2022-09-13T15:52:06;20.60;1.00
9393;DHT22;4736;52.508;13.422;2022-09-13T15:55:10;20.40;1.00
9393;DHT22;4736;52.508;13.422;2022-09-13T15:58:14;20.30;1.00
9393;DHT22;4736;52.508;13.422;2022-09-13T16:01:17;20.30;1.00
9393;DHT22;4736;52.508;13.422;2022-09-13T16:04:20;20.20;1.00
9393;DHT22;4736;52.508;13.422;2022-09-13T16:07:25;20.10;1.00
9393;DHT22;4736;52.508;13.422;2022-09-13T16:10:28;20.00;1.00
9393;DHT22;4736;52.508;13.422;2022-09-13T16:13:32;19.90;1.00
9393;DHT22;4736;52.508;13.422;2022-09-13T16:16:35;19.80;1.00
9393;DHT22;4736;52.508;13.422;2022-09-13T16:19:38;19.70;1.00
9393;DHT22;4736;52.508;13.422;2022-09-13T16:22:42;19.60;1.00
9393;DHT22;4736;52.508;13.422;2022-09-13T16:25:44;19.60;1.00
9393;DHT22;4736;52.508;13.422;2022-09-13T16:28:49;19.50;1.00
9393;DHT22;4736;52.508;13.422;2022-09-13T16:31:52;19.50;1.00
9393;DHT22;4736;52.508;13.422;2022-09-13T16:34:55;19.40;1.00
9393;DHT22;4736;52.508;13.422;2022-09-13T16:37:58;19.40;1.00
9393;DHT22;4736;52.508;13.422;2022-09-13T16:41:03;19.40;1.00
9393;DHT22;4736;52.508;13.422;2022-09-13T16:44:07;19.30;1.00
9393;DHT22;4736;52.508;13.422;2022-09-13T16:47:10;19.20;1.00
9393;DHT22;4736;52.508;13.422;2022-09-13T16:50:13;19.20;1.00
9393;DHT22;4736;52.508;13.422;2022-09-13T16:53:16;19.20;1.00
9393;DHT22;4736;52.508;13.422;2022-09-13T16:56:21;19.20;1.00
9393;DHT22;4736;52.508;13.422;2022-09-13T16:59:25;19.10;1.00
9393;DHT22;4736;52.508;13.422;2022-09-13T17:02:28;19.10;1.00
9393;DHT22;4736;52.508;13.422;2022-09-13T17:05:31;19.00;1.00
9393;DHT22;4736;52.508;13.422;2022-09-13T17:08:36;19.00;1.00
9393;DHT22;4736;52.508;13.422;2022-09-13T17:11:41;19.00;1.00
9393;DHT22;4736;52.508;13.422;2022-09-13T17:14:45;18.90;1.00
9393;DHT22;4736;52.508;13.422;2022-09-13T17:17:51;18.80;1.00
9393;DHT22;4736;52.508;13.422;2022-09-13T17:20:54;18.80;1.00
9393;DHT22;4736;52.508;13.422;2022-09-13T17:23:56;18.80;1.00
9393;DHT22;4736;52.508;13.422;2022-09-13T17:26:59;18.80;1.00
9393;DHT22;4736;52.508;13.422;2022-09-13T17:30:04;18.70;1.00
9393;DHT22;4736;52.508;13.422;2022-09-13T17:33:08;18.70;1.00
9393;DHT22;4736;52.508;13.422;2022-09-13T17:36:12;18.70;1.00
9393;DHT22;4736;52.508;13.422;2022-09-13T17:39:15;18.60;1.00
9393;DHT22;4736;52.508;13.422;2022-09-13T17:42:18;18.60;1.00
9393;DHT22;4736;52.508;13.422;2022-09-13T17:45:25;18.50;1.00
9393;DHT22;4736;52.508;13.422;2022-09-13T17:48:28;18.50;1.00
9393;DHT22;4736;52.508;13.422;2022-09-13T17:51:32;18.50;1.00
9393;DHT22;4736;52.508;13.422;2022-09-13T17:54:35;18.50;1.00
9393;DHT22;4736;52.508;13.422;2022-09-13T17:57:38;18.50;1.00
9393;DHT22;4736;52.508;13.422;2022-09-13T18:00:42;18.40;1.00
9393;DHT22;4736;52.508;13.422;2022-09-13T18:03:45;18.40;1.00
9393;DHT22;4736;52.508;13.422;2022-09-13T18:06:49;18.30;1.00
9393;DHT22;4736;52.508;13.422;2022-09-13T18:09:52;18.20;1.00
9393;DHT22;4736;52.508;13.422;2022-09-13T18:12:55;18.20;1.00
9393;DHT22;4736;52.508;13.422;2022-09-13T18:16:01;18.10;1.00
9393;DHT22;4736;52.508;13.422;2022-09-13T18:19:04;18.10;1.00
9393;DHT22;4736;52.508;13.422;2022-09-13T18:22:08;18.10;1.00
9393;DHT22;4736;52.508;13.422;2022-09-13T18:25:10;18.00;1.00
9393;DHT22;4736;52.508;13.422;2022-09-13T18:28:13;18.00;1.00
9393;DHT22;4736;52.508;13.422;2022-09-13T18:31:18;18.00;1.00
9393;DHT22;4736;52.508;13.422;2022-09-13T18:34:21;18.00;1.00
9393;DHT22;4736;52.508;13.422;2022-09-13T18:37:29;18.00;1.00
9393;DHT22;4736;52.508;13.422;2022-09-13T18:40:33;17.90;1.00
9393;DHT22;4736;52.508;13.422;2022-09-13T18:43:37;17.90;1.00
9393;DHT22;4736;52.508;13.422;2022-09-13T18:46:42;17.90;1.00
9393;DHT22;4736;52.508;13.422;2022-09-13T18:49:45;17.90;1.00
9393;DHT22;4736;52.508;13.422;2022-09-13T18:52:48;17.90;1.00
9393;DHT22;4736;52.508;13.422;2022-09-13T18:55:51;17.80;1.00
9393;DHT22;4736;52.508;13.422;2022-09-13T18:58:58;17.80;1.00
9393;DHT22;4736;52.508;13.422;2022-09-13T19:02:03;17.80;1.00
9393;DHT22;4736;52.508;13.422;2022-09-13T19:05:06;17.80;1.00
9393;DHT22;4736;52.508;13.422;2022-09-13T19:08:10;17.80;1.00
9393;DHT22;4736;52.508;13.422;2022-09-13T19:11:13;17.70;1.00
9393;DHT22;4736;52.508;13.422;2022-09-13T19:14:36;17.80;1.00
9393;DHT22;4736;52.508;13.422;2022-09-13T19:17:41;17.70;1.00
9393;DHT22;4736;52.508;13.422;2022-09-13T19:20:43;17.70;1.00
9393;DHT22;4736;52.508;13.422;2022-09-13T19:23:48;17.70;1.00
9393;DHT22;4736;52.508;13.422;2022-09-13T19:27:00;17.60;1.00
9393;DHT22;4736;52.508;13.422;2022-09-13T19:30:03;17.60;1.00
9393;DHT22;4736;52.508;13.422;2022-09-13T19:33:08;17.60;1.00
9393;DHT22;4736;52.508;13.422;2022-09-13T19:36:13;17.50;1.00
9393;DHT22;4736;52.508;13.422;2022-09-13T19:39:16;17.50;1.00
9393;DHT22;4736;52.508;13.422;2022-09-13T19:42:19;17.50;1.00
9393;DHT22;4736;52.508;13.422;2022-09-13T19:45:22;17.50;1.00
9393;DHT22;4736;52.508;13.422;2022-09-13T19:48:27;17.50;1.00
9393;DHT22;4736;52.508;13.422;2022-09-13T19:51:41;17.50;1.00
9393;DHT22;4736;52.508;13.422;2022-09-13T19:54:52;17.40;1.00
9393;DHT22;4736;52.508;13.422;2022-09-13T19:57:56;17.30;1.00
9393;DHT22;4736;52.508;13.422;2022-09-13T20:01:03;17.30;1.00
9393;DHT22;4736;52.508;13.422;2022-09-13T20:04:11;17.30;1.00
9393;DHT22;4736;52.508;13.422;2022-09-13T20:07:14;17.30;1.00
9393;DHT22;4736;52.508;13.422;2022-09-13T20:10:17;17.20;1.00
9393;DHT22;4736;52.508;13.422;2022-09-13T20:13:20;17.20;1.00
9393;DHT22;4736;52.508;13.422;2022-09-13T20:16:26;17.20;1.00
9393;DHT22;4736;52.508;13.422;2022-09-13T20:19:31;17.10;1.00
9393;DHT22;4736;52.508;13.422;2022-09-13T20:22:46;17.10;1.00
9393;DHT22;4736;52.508;13.422;2022-09-13T20:25:49;17.10;1.00
9393;DHT22;4736;52.508;13.422;2022-09-13T20:28:53;17.10;1.00
9393;DHT22;4736;52.508;13.422;2022-09-13T20:31:57;17.00;1.00
9393;DHT22;4736;52.508;13.422;2022-09-13T20:35:02;17.00;1.00
9393;DHT22;4736;52.508;13.422;2022-09-13T20:38:04;16.90;1.00
9393;DHT22;4736;52.508;13.422;2022-09-13T20:41:11;16.90;1.00
9393;DHT22;4736;52.508;13.422;2022-09-13T20:44:14;16.80;1.00